createdAt,value
2019-05-14T00:01:12.031Z,6.37
2019-05-14T00:03:41.528Z,6.80
2019-05-14T00:06:11.612Z,6.97
2019-05-14T00:08:41.889Z,6.40
2019-05-14T00:11:12.955Z,5.90
2019-05-14T00:13:42.607Z,5.33
2019-05-14T00:16:12.138Z,5.63
2019-05-14T00:18:42.092Z,6.10
2019-05-14T00:21:12.182Z,6.87
2019-05-14T00:23:42.249Z,6.37
2019-05-14T00:26:12.229Z,5.87
2019-05-14T00:28:42.384Z,5.93
2019-05-14T00:31:12.264Z,6.40
2019-05-14T00:33:42.128Z,5.57
2019-05-14T00:36:11.768Z,6.90
2019-05-14T00:38:41.977Z,6.20
2019-05-14T00:41:11.783Z,6.30
2019-05-14T00:43:41.710Z,6.50
2019-05-14T00:46:11.807Z,5.83
2019-05-14T00:48:42.185Z,6.00
2019-05-14T00:51:11.826Z,6.37
2019-05-14T00:53:42.153Z,6.20
2019-05-14T00:56:12.002Z,6.50
2019-05-14T00:58:41.656Z,6.10
2019-05-14T01:01:11.912Z,6.00
2019-05-14T01:03:41.664Z,6.33
2019-05-14T01:06:11.474Z,5.57
2019-05-14T01:08:41.501Z,5.17
2019-05-14T01:11:11.827Z,5.67
2019-05-14T01:13:44.979Z,5.83
2019-05-14T01:16:14.633Z,6.10
2019-05-14T01:18:44.157Z,5.70
2019-05-14T01:21:15.975Z,5.67
2019-05-14T01:23:45.541Z,5.60
2019-05-14T01:26:16.876Z,5.40
2019-05-14T01:28:46.734Z,5.57
2019-05-14T01:31:16.412Z,6.20
2019-05-14T01:33:46.075Z,5.47
2019-05-14T01:36:17.292Z,5.67
2019-05-14T01:38:46.828Z,4.97
2019-05-14T01:41:17.887Z,4.97
2019-05-14T01:43:48.478Z,5.53
2019-05-14T01:46:17.992Z,4.70
2019-05-14T01:48:47.535Z,4.83
2019-05-14T01:51:17.040Z,5.40
2019-05-14T01:53:46.616Z,4.77
2019-05-14T01:56:16.427Z,5.83
2019-05-14T01:58:46.112Z,4.53
2019-05-14T02:01:16.891Z,5.27
2019-05-14T02:03:46.475Z,5.43
2019-05-14T02:06:17.707Z,5.17
2019-05-14T02:08:47.330Z,5.30
2019-05-14T02:11:18.132Z,5.70
2019-05-14T02:13:48.502Z,5.47
2019-05-14T02:16:18.060Z,5.37
2019-05-14T02:18:47.567Z,5.47
2019-05-14T02:21:17.112Z,5.20
2019-05-14T02:23:46.718Z,4.67
2019-05-14T02:26:16.247Z,4.50
2019-05-14T02:28:46.062Z,5.10
2019-05-14T02:31:15.544Z,4.33
2019-05-14T02:33:45.021Z,3.90
2019-05-14T02:36:14.625Z,4.67
2019-05-14T02:38:44.388Z,4.53
2019-05-14T02:41:14.305Z,4.87
2019-05-14T02:43:43.877Z,5.13
2019-05-14T02:46:17.395Z,4.80
2019-05-14T02:48:44.861Z,4.40
2019-05-14T02:51:14.456Z,4.20
2019-05-14T02:53:43.986Z,4.30
2019-05-14T02:56:13.496Z,4.67
2019-05-14T02:58:43.132Z,4.73
2019-05-14T03:01:12.710Z,4.40
2019-05-14T03:03:42.178Z,4.50
2019-05-14T03:06:11.757Z,5.00
2019-05-14T03:08:41.271Z,4.80
2019-05-14T03:11:10.825Z,4.73
2019-05-14T03:13:40.397Z,5.00
2019-05-14T03:16:24.896Z,4.67
2019-05-14T03:18:41.143Z,4.77
2019-05-14T03:21:10.805Z,4.73
2019-05-14T03:23:40.401Z,4.40
2019-05-14T03:26:09.988Z,4.63
2019-05-14T03:28:40.145Z,5.77
2019-05-14T03:31:12.723Z,5.57
2019-05-14T03:33:43.629Z,5.03
2019-05-14T03:36:18.114Z,5.33
2019-05-14T03:38:43.609Z,4.93
2019-05-14T03:41:14.311Z,4.87
2019-05-14T03:43:44.098Z,4.90
2019-05-14T03:46:13.925Z,5.17
2019-05-14T03:48:43.527Z,3.90
2019-05-14T03:51:13.304Z,4.43
2019-05-14T03:54:00.021Z,4.50
2019-05-14T03:56:14.135Z,3.90
2019-05-14T03:58:43.597Z,3.73
2019-05-14T04:01:13.734Z,4.17
2019-05-14T04:03:43.569Z,4.27
2019-05-14T04:06:13.046Z,4.20
2019-05-14T04:08:43.080Z,4.30
2019-05-14T04:11:14.554Z,3.97
2019-05-14T04:13:44.398Z,4.13
2019-05-14T04:16:14.743Z,3.97
2019-05-14T04:18:45.150Z,3.80
2019-05-14T04:21:15.122Z,3.53
2019-05-14T04:23:50.783Z,4.00
2019-05-14T04:26:21.434Z,3.70
2019-05-14T04:28:51.916Z,4.30
2019-05-14T04:31:21.916Z,3.67
2019-05-14T04:33:52.179Z,4.40
2019-05-14T04:36:22.002Z,3.50
2019-05-14T04:38:55.243Z,3.83
2019-05-14T04:41:22.841Z,3.40
2019-05-14T04:43:53.997Z,3.20
2019-05-14T04:46:23.600Z,3.40
2019-05-14T04:48:53.115Z,3.57
2019-05-14T04:51:22.939Z,3.20
2019-05-14T04:53:52.640Z,3.40
2019-05-14T04:56:22.397Z,3.67
2019-05-14T04:58:51.915Z,3.03
2019-05-14T05:01:21.516Z,2.97
2019-05-14T05:03:51.305Z,4.17
2019-05-14T05:06:20.897Z,3.77
2019-05-14T05:08:50.550Z,4.40
2019-05-14T05:11:21.418Z,3.70
2019-05-14T05:13:51.268Z,3.60
2019-05-14T05:16:20.767Z,3.50
2019-05-14T05:18:50.361Z,3.47
2019-05-14T05:21:20.082Z,3.63
2019-05-14T05:23:49.648Z,4.23
2019-05-14T05:26:19.257Z,4.10
2019-05-14T05:29:03.011Z,3.93
2019-05-14T05:31:20.012Z,3.67
2019-05-14T05:33:49.587Z,4.00
2019-05-14T05:36:19.291Z,3.80
2019-05-14T05:38:49.895Z,4.47
2019-05-14T05:41:19.481Z,3.60
2019-05-14T05:43:49.150Z,4.03
2019-05-14T05:46:19.299Z,3.80
2019-05-14T05:48:48.901Z,4.33
2019-05-14T05:51:18.956Z,3.97
2019-05-14T05:53:48.803Z,3.77
2019-05-14T05:56:18.826Z,4.07
2019-05-14T05:58:49.134Z,4.20
2019-05-14T06:01:19.751Z,4.07
2019-05-14T06:03:49.667Z,3.63
2019-05-14T06:06:19.536Z,3.67
2019-05-14T06:08:49.544Z,3.90
2019-05-14T06:11:19.697Z,4.10
2019-05-14T06:13:49.401Z,3.47
2019-05-14T06:16:18.970Z,4.17
2019-05-14T06:18:48.830Z,4.53
2019-05-14T06:21:19.370Z,3.97
2019-05-14T06:23:49.506Z,4.30
2019-05-14T06:26:19.611Z,4.30
2019-05-14T06:28:49.955Z,3.67
2019-05-14T06:31:19.721Z,3.43
2019-05-14T06:33:50.422Z,4.40
2019-05-14T06:36:22.189Z,3.57
2019-05-14T06:38:51.852Z,3.40
2019-05-14T06:41:21.505Z,4.03
2019-05-14T06:43:51.144Z,3.97
2019-05-14T06:46:20.745Z,3.70
2019-05-14T06:48:50.303Z,3.60
2019-05-14T06:51:21.475Z,3.87
2019-05-14T06:53:51.014Z,3.90
2019-05-14T06:56:21.711Z,4.40
2019-05-14T06:58:51.739Z,4.13
2019-05-14T07:01:21.259Z,4.23
2019-05-14T07:03:51.136Z,4.10
2019-05-14T07:06:20.736Z,3.67
2019-05-14T07:08:52.653Z,4.10
2019-05-14T07:11:21.435Z,3.73
2019-05-14T07:13:51.221Z,3.70
2019-05-14T07:16:20.930Z,3.67
2019-05-14T07:18:53.960Z,3.63
2019-05-14T07:21:22.881Z,3.97
2019-05-14T07:23:52.534Z,4.20
2019-05-14T07:26:21.998Z,4.00
2019-05-14T07:28:51.760Z,4.27
2019-05-14T07:31:22.787Z,3.97
2019-05-14T07:33:52.312Z,3.93
2019-05-14T07:36:21.924Z,4.53
2019-05-14T07:38:51.600Z,3.73
2019-05-14T07:41:22.514Z,3.93
2019-05-14T07:43:52.212Z,4.30
2019-05-14T07:46:22.428Z,4.20
2019-05-14T07:49:04.314Z,3.87
2019-05-14T07:51:23.325Z,4.57
2019-05-14T07:53:53.178Z,4.33
2019-05-14T07:56:22.857Z,4.30
2019-05-14T07:58:52.445Z,4.20
2019-05-14T08:01:22.108Z,4.53
2019-05-14T08:03:51.691Z,3.90
2019-05-14T08:06:21.307Z,4.20
2019-05-14T08:08:50.922Z,4.63
2019-05-14T08:11:20.509Z,4.70
2019-05-14T08:13:50.178Z,4.93
2019-05-14T08:16:19.976Z,4.30
2019-05-14T08:18:49.648Z,5.00
2019-05-14T08:21:19.701Z,4.33
2019-05-14T08:23:49.414Z,4.23
2019-05-14T08:26:19.440Z,4.47
2019-05-14T08:28:49.225Z,3.73
2019-05-14T08:31:18.969Z,3.97
2019-05-14T08:33:49.279Z,4.17
2019-05-14T08:36:19.270Z,4.33
2019-05-14T08:38:50.057Z,4.23
2019-05-14T08:41:20.172Z,4.20
2019-05-14T08:43:49.767Z,3.50
2019-05-14T08:46:19.578Z,3.33
2019-05-14T08:48:49.862Z,3.27
2019-05-14T08:51:19.668Z,3.03
2019-05-14T08:53:50.572Z,3.13
2019-05-14T08:56:20.318Z,3.23
2019-05-14T08:58:50.086Z,2.97
2019-05-14T09:01:19.989Z,2.93
2019-05-14T09:03:49.907Z,3.20
2019-05-14T09:06:19.605Z,2.87
2019-05-14T09:08:49.902Z,2.80
2019-05-14T09:11:24.861Z,2.97
2019-05-14T09:13:51.109Z,2.73
2019-05-14T09:16:37.022Z,3.00
2019-05-14T09:18:52.064Z,3.10
2019-05-14T09:21:21.706Z,3.03
2019-05-14T09:23:51.437Z,3.20
2019-05-14T09:26:21.179Z,3.00
2019-05-14T09:28:50.759Z,2.70
2019-05-14T09:31:20.262Z,2.57
2019-05-14T09:33:50.084Z,3.17
2019-05-14T09:36:23.978Z,2.63
2019-05-14T09:38:51.294Z,2.83
2019-05-14T09:41:21.292Z,2.80
2019-05-14T09:43:50.772Z,3.03
2019-05-14T09:46:20.298Z,2.63
2019-05-14T09:48:49.784Z,2.50
2019-05-14T09:51:19.296Z,2.87
2019-05-14T09:53:49.201Z,2.63
2019-05-14T09:56:19.067Z,2.90
2019-05-14T09:58:49.515Z,2.87
2019-05-14T10:01:20.450Z,3.10
2019-05-14T10:03:51.317Z,2.80
2019-05-14T10:06:23.566Z,2.60
2019-05-14T10:08:53.216Z,2.40
2019-05-14T10:11:22.681Z,2.53
2019-05-14T10:13:52.328Z,2.30
2019-05-14T10:16:21.905Z,2.53
2019-05-14T10:18:52.965Z,2.50
2019-05-14T10:21:22.668Z,2.97
2019-05-14T10:23:52.256Z,2.90
2019-05-14T10:26:22.069Z,2.10
2019-05-14T10:28:51.837Z,2.77
2019-05-14T10:31:21.490Z,2.50
2019-05-14T10:33:51.071Z,2.30
2019-05-14T10:36:20.672Z,2.83
2019-05-14T10:38:51.926Z,2.75
2019-05-14T10:41:21.497Z,2.80
2019-05-14T10:43:51.045Z,2.60
2019-05-14T10:46:20.697Z,2.60
2019-05-14T10:48:50.282Z,2.40
2019-05-14T10:51:19.688Z,2.20
2019-05-14T10:53:49.378Z,2.70
2019-05-14T10:56:19.552Z,2.53
2019-05-14T10:58:49.436Z,2.47
2019-05-14T11:01:22.246Z,2.80
2019-05-14T11:03:50.653Z,2.87
2019-05-14T11:06:20.294Z,3.20
2019-05-14T11:08:52.661Z,3.00
2019-05-14T11:11:24.474Z,2.87
2019-05-14T11:13:54.275Z,2.83
2019-05-14T11:16:24.205Z,3.20
2019-05-14T11:18:57.149Z,2.63
2019-05-14T11:21:26.699Z,2.63
2019-05-14T11:23:58.470Z,2.60
2019-05-14T11:26:29.455Z,2.90
2019-05-14T11:28:58.837Z,2.50
2019-05-14T11:31:31.998Z,2.40
2019-05-14T11:34:00.609Z,2.87
2019-05-14T11:36:30.114Z,3.13
2019-05-14T11:39:03.696Z,2.73
2019-05-14T11:41:30.892Z,2.90
2019-05-14T11:44:00.372Z,2.50
2019-05-14T11:46:43.747Z,2.90
2019-05-14T11:49:01.240Z,3.20
2019-05-14T11:51:58.407Z,2.70
2019-05-14T11:54:01.958Z,3.57
2019-05-14T11:56:31.506Z,3.03
2019-05-14T11:59:01.078Z,2.73
2019-05-14T12:01:30.625Z,2.90
2019-05-14T12:04:00.222Z,3.00
2019-05-14T12:06:30.456Z,3.27
2019-05-14T12:09:00.150Z,3.23
2019-05-14T12:11:29.717Z,2.97
2019-05-14T12:14:00.751Z,3.37
2019-05-14T12:16:30.261Z,3.40
2019-05-14T12:18:59.925Z,3.10
2019-05-14T12:21:29.450Z,2.77
2019-05-14T12:24:04.621Z,2.97
2019-05-14T12:26:30.246Z,2.87
2019-05-14T12:28:59.859Z,2.80
2019-05-14T12:31:29.537Z,3.10
2019-05-14T12:33:59.453Z,2.97
2019-05-14T12:36:29.574Z,3.17
2019-05-14T12:38:59.699Z,3.50
2019-05-14T12:41:29.662Z,2.87
2019-05-14T12:43:59.567Z,3.20
2019-05-14T12:46:29.843Z,3.73
2019-05-14T12:48:59.732Z,3.60
2019-05-14T12:51:29.814Z,3.13
2019-05-14T12:53:59.957Z,3.03
2019-05-14T12:56:30.165Z,3.53
2019-05-14T12:59:00.393Z,3.07
2019-05-14T13:01:30.194Z,3.10
2019-05-14T13:03:59.690Z,3.27
2019-05-14T13:06:29.539Z,2.53
2019-05-14T13:08:59.210Z,2.90
2019-05-14T13:11:28.777Z,3.10
2019-05-14T13:13:58.908Z,3.13
2019-05-14T13:16:28.718Z,3.10
2019-05-14T13:18:59.781Z,3.00
2019-05-14T13:21:31.381Z,3.80
2019-05-14T13:24:01.249Z,3.23
2019-05-14T13:26:30.768Z,3.43
2019-05-14T13:29:00.274Z,3.23
2019-05-14T13:31:29.909Z,3.30
2019-05-14T13:33:59.690Z,3.23
2019-05-14T13:36:29.255Z,3.00
2019-05-14T13:38:59.732Z,3.77
2019-05-14T13:41:29.395Z,3.17
2019-05-14T13:43:59.076Z,3.30
2019-05-14T13:46:28.939Z,2.97
2019-05-14T13:48:59.313Z,3.23
2019-05-14T13:51:33.184Z,3.90
2019-05-14T13:54:00.271Z,3.33
2019-05-14T13:56:29.987Z,3.43
2019-05-14T13:58:59.593Z,2.93
2019-05-14T14:01:30.671Z,3.73
2019-05-14T14:04:10.396Z,3.50
2019-05-14T14:06:31.492Z,3.60
2019-05-14T14:09:01.195Z,3.08
2019-05-14T14:11:31.536Z,3.50
2019-05-14T14:14:01.314Z,3.17
2019-05-14T14:16:31.046Z,2.90
2019-05-14T14:19:03.577Z,3.20
2019-05-14T14:21:31.934Z,3.00
2019-05-14T14:24:01.479Z,3.67
2019-05-14T14:26:31.005Z,3.43
2019-05-14T14:29:00.758Z,3.23
2019-05-14T14:31:30.278Z,3.10
2019-05-14T14:33:59.860Z,3.65
2019-05-14T14:36:30.197Z,2.97
2019-05-14T14:38:59.822Z,3.00
2019-05-14T14:41:29.350Z,2.63
2019-05-14T14:43:58.863Z,2.87
2019-05-14T14:46:28.870Z,3.10
2019-05-14T14:49:02.430Z,3.10
2019-05-14T14:51:29.507Z,3.07
2019-05-14T14:54:09.863Z,3.10
2019-05-14T14:56:31.220Z,3.10
2019-05-14T14:59:00.810Z,3.50
2019-05-14T15:01:30.460Z,3.10
2019-05-14T15:04:00.207Z,2.87
2019-05-14T15:06:30.828Z,3.10
2019-05-14T15:09:00.356Z,2.97
2019-05-14T15:11:30.157Z,3.70
2019-05-14T15:13:59.744Z,3.47
2019-05-14T15:16:29.405Z,3.33
2019-05-14T15:18:59.000Z,3.37
2019-05-14T15:21:29.974Z,3.53
2019-05-14T15:24:10.643Z,3.37
2019-05-14T15:26:30.861Z,4.10
2019-05-14T15:29:00.444Z,3.30
2019-05-14T15:31:29.915Z,3.80
2019-05-14T15:33:59.607Z,3.73
2019-05-14T15:36:29.219Z,3.93
2019-05-14T15:38:59.156Z,3.70
2019-05-14T15:41:29.727Z,3.37
2019-05-14T15:43:59.464Z,3.80
2019-05-14T15:46:30.557Z,3.40
2019-05-14T15:49:00.071Z,3.63
2019-05-14T15:51:29.653Z,3.40
2019-05-14T15:54:15.583Z,4.13
2019-05-14T15:56:30.405Z,3.70
2019-05-14T15:59:01.525Z,3.30
2019-05-14T16:01:32.155Z,3.50
2019-05-14T16:04:01.641Z,3.63
2019-05-14T16:06:31.184Z,3.30
2019-05-14T16:09:00.800Z,3.70
2019-05-14T16:11:30.308Z,3.37
2019-05-14T16:13:59.794Z,3.70
2019-05-14T16:16:29.346Z,3.80
2019-05-14T16:19:00.416Z,3.30
2019-05-14T16:21:30.025Z,3.53
2019-05-14T16:23:59.693Z,3.63
2019-05-14T16:26:29.435Z,3.40
2019-05-14T16:29:01.105Z,3.37
2019-05-14T16:31:31.557Z,3.60
2019-05-14T16:34:01.401Z,3.27
2019-05-14T16:36:30.874Z,3.60
2019-05-14T16:39:01.503Z,3.30
2019-05-14T16:41:30.983Z,3.63
2019-05-14T16:44:00.575Z,3.90
2019-05-14T16:46:30.136Z,3.83
2019-05-14T16:48:59.673Z,3.97
2019-05-14T16:51:29.276Z,3.43
2019-05-14T16:53:59.118Z,3.30
2019-05-14T16:56:28.715Z,3.40
2019-05-14T16:58:58.443Z,3.50
2019-05-14T17:01:32.850Z,4.00
2019-05-14T17:03:59.690Z,3.73
2019-05-14T17:06:29.531Z,3.90
2019-05-14T17:08:59.488Z,3.43
2019-05-14T17:11:29.135Z,3.47
2019-05-14T17:13:58.703Z,3.37
2019-05-14T17:16:28.997Z,3.40
2019-05-14T17:18:59.188Z,3.90
2019-05-14T17:21:28.944Z,3.60
2019-05-14T17:23:58.637Z,2.93
2019-05-14T17:26:28.724Z,3.10
2019-05-14T17:28:59.635Z,3.30
2019-05-14T17:31:31.146Z,3.97
2019-05-14T17:34:00.993Z,3.80
2019-05-14T17:36:30.478Z,3.23
2019-05-14T17:39:00.427Z,2.73
2019-05-14T17:41:29.954Z,3.03
2019-05-14T17:44:00.614Z,3.13
2019-05-14T17:46:30.139Z,3.23
2019-05-14T17:48:59.658Z,3.57
2019-05-14T17:51:29.409Z,3.23
2019-05-14T17:53:58.940Z,3.53
2019-05-14T17:56:28.577Z,3.50
2019-05-14T17:58:58.113Z,3.50
2019-05-14T18:01:28.944Z,3.00
2019-05-14T18:03:58.685Z,3.20
2019-05-14T18:06:28.718Z,3.37
2019-05-14T18:08:58.565Z,3.50
2019-05-14T18:11:28.493Z,3.80
2019-05-14T18:13:58.984Z,4.13
2019-05-14T18:16:28.881Z,3.87
2019-05-14T18:18:58.516Z,3.80
2019-05-14T18:21:28.602Z,3.80
2019-05-14T18:23:58.667Z,3.53
2019-05-14T18:26:28.995Z,3.40
2019-05-14T18:28:58.670Z,3.70
2019-05-14T18:31:28.222Z,4.40
2019-05-14T18:33:58.742Z,3.60
2019-05-14T18:36:28.661Z,3.80
2019-05-14T18:38:58.763Z,3.60
2019-05-14T18:41:29.356Z,3.93
2019-05-14T18:43:59.048Z,4.60
2019-05-14T18:46:28.849Z,3.63
2019-05-14T18:48:59.308Z,4.30
2019-05-14T18:51:29.125Z,4.73
2019-05-14T18:53:58.845Z,4.20
2019-05-14T18:56:29.283Z,4.60
2019-05-14T18:58:59.096Z,4.23
2019-05-14T19:01:29.256Z,4.50
2019-05-14T19:03:59.117Z,3.73
2019-05-14T19:06:28.700Z,4.83
2019-05-14T19:09:00.021Z,3.93
2019-05-14T19:11:30.687Z,3.70
2019-05-14T19:14:00.254Z,3.80
2019-05-14T19:16:29.969Z,3.50
2019-05-14T19:19:01.104Z,3.33
2019-05-14T19:21:30.748Z,3.13
2019-05-14T19:24:00.300Z,2.90
2019-05-14T19:26:36.491Z,2.77
2019-05-14T19:29:01.443Z,3.10
2019-05-14T19:31:30.973Z,3.10
2019-05-14T19:34:00.500Z,2.80
2019-05-14T19:36:30.094Z,2.67
2019-05-14T19:39:00.806Z,3.07
2019-05-14T19:41:30.360Z,2.73
2019-05-14T19:44:01.543Z,2.60
2019-05-14T19:46:31.110Z,2.57
2019-05-14T19:49:00.675Z,2.60
2019-05-14T19:51:30.298Z,2.70
2019-05-14T19:53:59.764Z,2.90
2019-05-14T19:56:29.445Z,2.90
2019-05-14T19:58:59.052Z,3.00
2019-05-14T20:01:28.859Z,2.90
2019-05-14T20:03:59.735Z,3.20
2019-05-14T20:06:32.283Z,2.93
2019-05-14T20:09:01.893Z,3.10
2019-05-14T20:11:31.457Z,2.57
2019-05-14T20:14:00.995Z,3.13
2019-05-14T20:16:30.568Z,2.90
2019-05-14T20:19:00.127Z,2.90
2019-05-14T20:21:29.675Z,3.00
2019-05-14T20:23:59.417Z,3.30
2019-05-14T20:26:28.978Z,3.07
2019-05-14T20:28:59.022Z,2.97
2019-05-14T20:31:29.688Z,2.60
2019-05-14T20:33:59.371Z,3.07
2019-05-14T20:36:28.971Z,3.07
2019-05-14T20:38:58.987Z,2.67
2019-05-14T20:41:28.842Z,2.83
2019-05-14T20:43:58.751Z,3.17
2019-05-14T20:46:28.706Z,2.97
2019-05-14T20:48:59.139Z,3.33
2019-05-14T20:51:30.425Z,2.73
2019-05-14T20:54:00.148Z,2.70
2019-05-14T20:56:29.677Z,2.73
2019-05-14T20:58:59.301Z,2.73
2019-05-14T21:01:29.275Z,3.20
2019-05-14T21:03:59.375Z,3.20
2019-05-14T21:06:28.917Z,3.40
2019-05-14T21:08:58.636Z,3.10
2019-05-14T21:11:28.868Z,3.37
2019-05-14T21:13:58.456Z,3.27
2019-05-14T21:16:28.483Z,2.80
2019-05-14T21:18:59.228Z,2.63
2019-05-14T21:21:28.907Z,2.90
2019-05-14T21:23:58.807Z,2.93
2019-05-14T21:26:29.214Z,2.70
2019-05-14T21:28:58.815Z,2.80
2019-05-14T21:31:28.572Z,2.40
2019-05-14T21:33:58.612Z,2.70
2019-05-14T21:36:29.919Z,3.10
2019-05-14T21:38:59.565Z,3.10
2019-05-14T21:41:31.886Z,3.13
2019-05-14T21:44:01.597Z,2.40
2019-05-14T21:46:31.645Z,3.40
2019-05-14T21:49:01.743Z,2.97
2019-05-14T21:51:31.727Z,2.73
2019-05-14T21:54:01.229Z,3.60
2019-05-14T21:56:30.754Z,2.90
2019-05-14T21:59:01.431Z,2.73
2019-05-14T22:01:31.214Z,2.83
2019-05-14T22:04:00.754Z,2.87
2019-05-14T22:06:30.235Z,3.03
2019-05-14T22:08:59.752Z,2.90
2019-05-14T22:11:29.292Z,2.70
2019-05-14T22:13:58.868Z,3.00
2019-05-14T22:16:28.481Z,2.83
2019-05-14T22:18:59.335Z,3.10
2019-05-14T22:21:29.080Z,3.23
2019-05-14T22:23:58.946Z,3.20
2019-05-14T22:26:28.496Z,3.17
2019-05-14T22:28:58.659Z,3.30
2019-05-14T22:31:28.950Z,3.10
2019-05-14T22:33:58.548Z,3.57
2019-05-14T22:36:29.321Z,3.50
2019-05-14T22:38:59.085Z,3.30
2019-05-14T22:41:29.206Z,3.27
2019-05-14T22:44:00.031Z,3.10
2019-05-14T22:46:29.819Z,3.80
2019-05-14T22:48:59.337Z,3.47
2019-05-14T22:51:28.899Z,3.50
2019-05-14T22:53:58.995Z,3.83
2019-05-14T22:56:28.601Z,4.20
2019-05-14T22:58:58.362Z,5.07
2019-05-14T23:01:28.850Z,3.47
2019-05-14T23:03:59.662Z,3.50
2019-05-14T23:06:29.313Z,3.47
2019-05-14T23:08:58.872Z,3.40
2019-05-14T23:11:28.890Z,3.77
2019-05-14T23:13:58.491Z,3.43
2019-05-14T23:16:36.356Z,3.47
2019-05-14T23:18:59.232Z,3.43
2019-05-14T23:21:28.717Z,3.20
2019-05-14T23:23:58.377Z,3.17
2019-05-14T23:26:28.552Z,3.30
2019-05-14T23:28:58.761Z,3.20
2019-05-14T23:31:28.957Z,3.27
2019-05-14T23:33:58.670Z,3.10
2019-05-14T23:36:29.202Z,3.73
2019-05-14T23:38:59.195Z,4.17
2019-05-14T23:41:28.866Z,3.60
2019-05-14T23:43:58.327Z,3.23
2019-05-14T23:46:29.225Z,3.27
2019-05-14T23:48:59.313Z,3.13
2019-05-14T23:51:29.163Z,3.33
2019-05-14T23:53:58.665Z,3.40
2019-05-14T23:56:28.788Z,3.43
2019-05-14T23:59:01.958Z,3.60
